Time;durP1;ratioP1;P1;durP2;ratioP2;P2;SDS_P1;SDS_P2;PMS_P1;PMS_P2;Temp;Humidity;BMP_temperature;BMP_pressure;BME280_temperature;BME280_humidity;BME280_pressure;Samples;Min_cycle;Max_cycle;Signal;HPM_P1;HPM_P2
2024/03/09 00:00:10;;;;;;;92.05;63.03;;;;;;;;;;5011177;28;20176;-48
2024/03/09 00:02:37;;;;;;;86.47;60.58;;;;;;;;;;5013981;28;20592;-48
2024/03/09 00:05:05;;;;;;;86.95;59.53;;;;;;;;;;5016195;28;20203;-48
2024/03/09 00:07:32;;;;;;;85.13;57.60;;;;;;;;;;4999459;28;20180;-48
2024/03/09 00:09:58;;;;;;;84.28;56.78;;;;;;;;;;5006834;28;20273;-48
2024/03/09 00:12:24;;;;;;;80.05;55.97;;;;;;;;;;5002737;28;20204;-48
2024/03/09 00:14:51;;;;;;;77.00;54.03;;;;;;;;;;5013280;28;20189;-48
2024/03/09 00:17:17;;;;;;;75.97;53.30;;;;;;;;;;5010127;28;20181;-48
2024/03/09 00:19:44;;;;;;;76.20;51.30;;;;;;;;;;5007225;28;20263;-48
2024/03/09 00:22:11;;;;;;;72.03;50.95;;;;;;;;;;5012715;28;20188;-48
2024/03/09 00:24:37;;;;;;;69.88;50.28;;;;;;;;;;5014534;28;20575;-48
2024/03/09 00:27:07;;;;;;;68.90;49.03;;;;;;;;;;5009441;28;20174;-48
2024/03/09 00:29:33;;;;;;;62.03;45.58;;;;;;;;;;5004464;28;20868;-48
2024/03/09 00:31:59;;;;;;;66.38;46.28;;;;;;;;;;5013871;28;20184;-48
2024/03/09 00:34:25;;;;;;;59.78;44.05;;;;;;;;;;5013685;28;20190;-48
2024/03/09 00:36:51;;;;;;;62.33;43.78;;;;;;;;;;5011871;28;20185;-48
2024/03/09 00:39:19;;;;;;;57.88;42.58;;;;;;;;;;5010594;28;20183;-48
2024/03/09 00:41:47;;;;;;;58.58;41.80;;;;;;;;;;5008053;28;20180;-48
2024/03/09 00:44:13;;;;;;;56.38;40.80;;;;;;;;;;5007511;28;20176;-49
2024/03/09 00:46:40;;;;;;;55.45;39.17;;;;;;;;;;4998401;28;20264;-48
2024/03/09 00:49:06;;;;;;;59.95;39.42;;;;;;;;;;5008272;28;20177;-48
2024/03/09 00:51:33;;;;;;;51.30;37.50;;;;;;;;;;5010249;28;20296;-48
2024/03/09 00:53:59;;;;;;;53.78;37.45;;;;;;;;;;5005268;28;20180;-47
2024/03/09 00:56:26;;;;;;;48.20;35.63;;;;;;;;;;4999009;28;20571;-48
2024/03/09 00:58:56;;;;;;;51.22;35.15;;;;;;;;;;5004417;28;20238;-48
2024/03/09 01:01:23;;;;;;;45.97;34.00;;;;;;;;;;5004293;28;20279;-48
2024/03/09 01:03:51;;;;;;;47.13;34.42;;;;;;;;;;5006339;28;20205;-47
2024/03/09 01:06:20;;;;;;;47.53;33.72;;;;;;;;;;5006159;28;20181;-48
2024/03/09 01:08:49;;;;;;;41.97;31.55;;;;;;;;;;5012946;28;20180;-48
2024/03/09 01:11:15;;;;;;;42.88;31.63;;;;;;;;;;5009650;28;20188;-48
2024/03/09 01:13:41;;;;;;;42.97;30.65;;;;;;;;;;5010927;28;20200;-48
2024/03/09 01:16:07;;;;;;;39.35;29.33;;;;;;;;;;5000160;28;20188;-48
2024/03/09 01:18:33;;;;;;;40.53;29.95;;;;;;;;;;5009539;28;20456;-48
2024/03/09 01:20:59;;;;;;;40.33;30.08;;;;;;;;;;5006991;28;20212;-48
2024/03/09 01:23:25;;;;;;;40.55;29.27;;;;;;;;;;5012051;28;20211;-48
2024/03/09 01:25:52;;;;;;;35.50;26.77;;;;;;;;;;5013441;28;20177;-48
2024/03/09 01:28:18;;;;;;;35.10;27.00;;;;;;;;;;5007389;28;20545;-48
2024/03/09 01:30:45;;;;;;;37.53;27.20;;;;;;;;;;5002298;28;20181;-48
2024/03/09 01:33:11;;;;;;;34.78;25.75;;;;;;;;;;5003968;28;20181;-48
2024/03/09 01:35:37;;;;;;;37.35;25.95;;;;;;;;;;5014910;28;20266;-48
2024/03/09 01:38:04;;;;;;;32.47;24.58;;;;;;;;;;5002202;28;20188;-48
2024/03/09 01:40:31;;;;;;;33.90;24.90;;;;;;;;;;5004149;28;20272;-48
2024/03/09 01:42:57;;;;;;;31.48;23.40;;;;;;;;;;5008618;28;20258;-48
2024/03/09 01:45:23;;;;;;;30.85;22.55;;;;;;;;;;5013362;28;20184;-48
2024/03/09 01:47:50;;;;;;;28.55;21.65;;;;;;;;;;5007975;28;20259;-48
2024/03/09 01:50:16;;;;;;;28.33;21.63;;;;;;;;;;5008086;28;20181;-48
2024/03/09 01:52:47;;;;;;;28.45;21.63;;;;;;;;;;5010804;28;20259;-49
2024/03/09 01:55:14;;;;;;;28.67;21.52;;;;;;;;;;5005199;28;20746;-48
2024/03/09 01:57:40;;;;;;;28.75;21.02;;;;;;;;;;5010951;28;20189;-48
2024/03/09 02:00:09;;;;;;;27.38;20.10;;;;;;;;;;5009826;28;20323;-48
2024/03/09 02:02:35;;;;;;;25.33;19.63;;;;;;;;;;5005157;28;20597;-48
2024/03/09 02:05:10;;;;;;;25.70;19.52;;;;;;;;;;5003641;28;20251;-48
2024/03/09 02:07:36;;;;;;;27.33;19.90;;;;;;;;;;5010386;28;20497;-48
2024/03/09 02:10:02;;;;;;;25.33;19.65;;;;;;;;;;5014690;28;20184;-48
2024/03/09 02:12:28;;;;;;;23.52;17.88;;;;;;;;;;5012721;28;20475;-48
2024/03/09 02:14:54;;;;;;;23.65;18.40;;;;;;;;;;5005846;28;20192;-48
2024/03/09 02:17:22;;;;;;;21.00;16.92;;;;;;;;;;5005930;28;20774;-49
2024/03/09 02:19:51;;;;;;;23.30;18.15;;;;;;;;;;5011312;28;20204;-48
2024/03/09 02:22:18;;;;;;;23.65;17.75;;;;;;;;;;5005753;28;20231;-48
2024/03/09 02:24:45;;;;;;;23.13;16.95;;;;;;;;;;5009612;28;20267;-48
2024/03/09 02:27:11;;;;;;;20.83;15.70;;;;;;;;;;5012101;28;20188;-49
2024/03/09 02:29:38;;;;;;;24.20;17.40;;;;;;;;;;5009020;28;20189;-48
2024/03/09 02:32:04;;;;;;;20.08;15.27;;;;;;;;;;5004367;28;20180;-48
2024/03/09 02:34:30;;;;;;;20.98;15.82;;;;;;;;;;5005524;28;20422;-48
2024/03/09 02:36:55;;;;;;;19.73;15.57;;;;;;;;;;5000682;28;20189;-48
2024/03/09 02:39:23;;;;;;;20.75;15.10;;;;;;;;;;5001517;28;20276;-48
2024/03/09 02:41:49;;;;;;;20.67;15.45;;;;;;;;;;5019194;28;20193;-48
2024/03/09 02:44:15;;;;;;;19.08;14.32;;;;;;;;;;5009383;28;20227;-48
2024/03/09 02:46:41;;;;;;;20.00;14.68;;;;;;;;;;5013833;28;20196;-48
2024/03/09 02:49:07;;;;;;;17.02;13.75;;;;;;;;;;5006037;28;20272;-48
2024/03/09 02:51:33;;;;;;;18.85;14.13;;;;;;;;;;5000010;28;20193;-48
2024/03/09 02:53:59;;;;;;;17.05;13.07;;;;;;;;;;5008168;28;20249;-48
2024/03/09 02:56:25;;;;;;;16.60;13.13;;;;;;;;;;5008617;28;20188;-48
2024/03/09 02:58:51;;;;;;;18.70;13.32;;;;;;;;;;5004751;28;20181;-48
2024/03/09 03:01:18;;;;;;;19.00;13.00;;;;;;;;;;5006495;28;20251;-48
2024/03/09 03:04:07;;;;;;;15.63;12.10;;;;;;;;;;5003400;28;20200;-48
2024/03/09 03:06:32;;;;;;;16.52;12.57;;;;;;;;;;5004648;28;20196;-48
2024/03/09 03:09:05;;;;;;;14.13;11.57;;;;;;;;;;5023706;28;20185;-48
2024/03/09 03:11:32;;;;;;;15.52;12.32;;;;;;;;;;5004098;28;20223;-48
2024/03/09 03:13:59;;;;;;;12.82;10.98;;;;;;;;;;5011626;28;20458;-48
2024/03/09 03:16:29;;;;;;;15.60;11.38;;;;;;;;;;5005001;28;20181;-48
2024/03/09 03:19:09;;;;;;;14.82;10.88;;;;;;;;;;5009764;28;20247;-48
2024/03/09 03:21:36;;;;;;;15.18;11.70;;;;;;;;;;4994957;28;20181;-48
2024/03/09 03:24:02;;;;;;;15.65;12.05;;;;;;;;;;5010887;28;20208;-48
2024/03/09 03:26:31;;;;;;;14.73;11.30;;;;;;;;;;5002649;28;20177;-48
2024/03/09 03:29:01;;;;;;;13.50;10.60;;;;;;;;;;5009240;28;20188;-48
2024/03/09 03:31:28;;;;;;;13.45;10.90;;;;;;;;;;5001612;28;20187;-48
2024/03/09 03:33:56;;;;;;;14.70;10.07;;;;;;;;;;5008515;28;20184;-48
2024/03/09 03:36:23;;;;;;;13.00;10.07;;;;;;;;;;5004885;28;20238;-48
2024/03/09 03:38:49;;;;;;;12.18;9.88;;;;;;;;;;5005524;28;20214;-48
2024/03/09 03:41:16;;;;;;;12.50;10.27;;;;;;;;;;5004896;28;20191;-48
2024/03/09 03:43:44;;;;;;;13.85;10.32;;;;;;;;;;5011688;28;20389;-48
2024/03/09 03:46:11;;;;;;;12.07;9.70;;;;;;;;;;5002135;28;20176;-48
2024/03/09 03:48:39;;;;;;;12.80;9.70;;;;;;;;;;5000358;28;20176;-48
2024/03/09 03:51:07;;;;;;;9.90;8.82;;;;;;;;;;5004098;28;20260;-48
2024/03/09 03:53:33;;;;;;;11.27;9.35;;;;;;;;;;5005669;28;20195;-48
2024/03/09 03:55:59;;;;;;;12.23;9.02;;;;;;;;;;5006826;28;20181;-48
2024/03/09 03:58:25;;;;;;;11.60;9.32;;;;;;;;;;5010749;28;20192;-48
2024/03/09 04:00:53;;;;;;;11.80;9.02;;;;;;;;;;5001553;28;20192;-48
2024/03/09 04:03:26;;;;;;;10.43;8.60;;;;;;;;;;5007542;28;20657;-48
2024/03/09 04:05:53;;;;;;;10.90;8.30;;;;;;;;;;5007518;28;20184;-48
2024/03/09 04:08:19;;;;;;;10.30;8.05;;;;;;;;;;5005551;28;20172;-48
2024/03/09 04:10:46;;;;;;;8.40;6.97;;;;;;;;;;5022230;28;20278;-48
2024/03/09 04:13:13;;;;;;;10.65;8.35;;;;;;;;;;5009125;28;20176;-48
2024/03/09 04:15:39;;;;;;;9.60;7.72;;;;;;;;;;5009556;28;20575;-48
2024/03/09 04:18:05;;;;;;;10.23;7.60;;;;;;;;;;5008687;28;20189;-48
2024/03/09 04:20:34;;;;;;;10.48;8.13;;;;;;;;;;5006834;28;20215;-48
2024/03/09 04:23:02;;;;;;;9.93;7.75;;;;;;;;;;5012503;28;20207;-48
2024/03/09 04:25:28;;;;;;;8.68;7.05;;;;;;;;;;5006524;28;20275;-48
2024/03/09 04:27:55;;;;;;;9.13;7.20;;;;;;;;;;5007667;28;20326;-48
2024/03/09 04:30:23;;;;;;;8.80;6.93;;;;;;;;;;5004659;28;20184;-48
2024/03/09 04:32:49;;;;;;;8.70;6.95;;;;;;;;;;5008164;28;20539;-48
2024/03/09 04:35:15;;;;;;;9.32;7.38;;;;;;;;;;5006938;28;20551;-48
2024/03/09 04:37:41;;;;;;;8.05;6.63;;;;;;;;;;5013232;28;20235;-48
2024/03/09 04:40:15;;;;;;;8.32;6.55;;;;;;;;;;5012216;28;20287;-48
2024/03/09 04:42:42;;;;;;;9.00;6.78;;;;;;;;;;5012586;28;20606;-48
2024/03/09 04:45:10;;;;;;;7.95;6.50;;;;;;;;;;5009502;28;20498;-48
2024/03/09 04:47:37;;;;;;;7.90;6.38;;;;;;;;;;5008389;28;20199;-48
2024/03/09 04:50:03;;;;;;;8.00;6.25;;;;;;;;;;5009567;28;20700;-48
2024/03/09 04:52:29;;;;;;;7.53;6.30;;;;;;;;;;5010440;28;20197;-48
2024/03/09 04:54:55;;;;;;;7.47;6.15;;;;;;;;;;5007482;28;20246;-48
2024/03/09 04:57:24;;;;;;;8.32;6.90;;;;;;;;;;5015233;28;20185;-48
2024/03/09 04:59:53;;;;;;;7.32;5.70;;;;;;;;;;5011953;28;20183;-48
2024/03/09 05:02:19;;;;;;;7.43;5.82;;;;;;;;;;5004789;28;20465;-48
2024/03/09 05:04:45;;;;;;;7.50;5.53;;;;;;;;;;5005531;28;20267;-48
2024/03/09 05:07:11;;;;;;;8.45;6.03;;;;;;;;;;5007808;28;20196;-48
2024/03/09 05:09:37;;;;;;;7.13;5.55;;;;;;;;;;5008360;28;20448;-48
2024/03/09 05:12:04;;;;;;;7.47;5.82;;;;;;;;;;5003416;28;20192;-48
2024/03/09 05:14:33;;;;;;;8.50;5.50;;;;;;;;;;5009412;28;20243;-48
2024/03/09 05:16:58;;;;;;;6.22;5.13;;;;;;;;;;5010697;28;20195;-48
2024/03/09 05:19:24;;;;;;;6.88;5.90;;;;;;;;;;5010455;28;20200;-48
2024/03/09 05:21:51;;;;;;;6.32;5.05;;;;;;;;;;5009207;28;20208;-48
2024/03/09 05:24:17;;;;;;;5.93;5.32;;;;;;;;;;5009455;28;20714;-48
2024/03/09 05:26:43;;;;;;;6.55;5.18;;;;;;;;;;5028859;28;20181;-48
2024/03/09 05:29:11;;;;;;;6.57;5.10;;;;;;;;;;5010434;28;20528;-48
2024/03/09 05:31:37;;;;;;;7.32;5.53;;;;;;;;;;5008628;28;20177;-48
2024/03/09 05:34:07;;;;;;;6.03;4.97;;;;;;;;;;5007247;28;20234;-48
2024/03/09 05:36:32;;;;;;;6.38;5.20;;;;;;;;;;5010391;28;20307;-48
2024/03/09 05:38:58;;;;;;;7.47;5.22;;;;;;;;;;5010699;28;20271;-49
2024/03/09 05:41:24;;;;;;;6.03;4.32;;;;;;;;;;5012904;28;20188;-51
2024/03/09 05:43:50;;;;;;;12.48;5.05;;;;;;;;;;5013782;28;20637;-49
2024/03/09 05:46:17;;;;;;;12.85;4.80;;;;;;;;;;5002704;28;20250;-47
2024/03/09 05:48:46;;;;;;;5.35;4.60;;;;;;;;;;5008156;28;20271;-41
2024/03/09 05:51:14;;;;;;;12.05;5.03;;;;;;;;;;5007253;28;20226;-44
2024/03/09 05:53:40;;;;;;;8.30;4.28;;;;;;;;;;5007627;28;20451;-49
2024/03/09 05:56:06;;;;;;;10.27;5.32;;;;;;;;;;5004901;28;20215;-47
2024/03/09 05:58:32;;;;;;;16.17;8.13;;;;;;;;;;5007091;28;20510;-47
2024/03/09 06:00:58;;;;;;;15.35;8.80;;;;;;;;;;5012005;28;20283;-46
2024/03/09 06:03:25;;;;;;;15.82;9.57;;;;;;;;;;5004502;28;20296;-51
2024/03/09 06:05:51;;;;;;;15.45;10.90;;;;;;;;;;5001386;28;20182;-45
2024/03/09 06:08:17;;;;;;;17.23;11.95;;;;;;;;;;5002104;28;20403;-45
2024/03/09 06:10:44;;;;;;;17.90;11.77;;;;;;;;;;5007319;28;20452;-45
2024/03/09 06:13:10;;;;;;;16.20;11.93;;;;;;;;;;5013338;28;20446;-45
2024/03/09 06:15:36;;;;;;;20.52;10.80;;;;;;;;;;5005389;28;20173;-45
2024/03/09 06:18:02;;;;;;;20.08;11.00;;;;;;;;;;5001614;28;20185;-45
2024/03/09 06:20:29;;;;;;;12.95;9.40;;;;;;;;;;5004616;28;20531;-45
2024/03/09 06:22:56;;;;;;;14.40;9.48;;;;;;;;;;5012033;28;20231;-45
2024/03/09 06:25:22;;;;;;;13.80;9.20;;;;;;;;;;5013234;28;20177;-45
2024/03/09 06:27:55;;;;;;;10.93;8.90;;;;;;;;;;5014184;28;20169;-46
2024/03/09 06:30:23;;;;;;;14.57;8.48;;;;;;;;;;5008933;28;20184;-46
2024/03/09 06:32:53;;;;;;;10.68;7.95;;;;;;;;;;5007172;28;20196;-46
2024/03/09 06:35:19;;;;;;;11.10;8.40;;;;;;;;;;5022465;28;20188;-45
2024/03/09 06:37:46;;;;;;;14.18;7.95;;;;;;;;;;5011899;28;20180;-46
2024/03/09 06:40:12;;;;;;;11.65;7.90;;;;;;;;;;5027690;28;20181;-46
2024/03/09 06:42:38;;;;;;;10.48;7.07;;;;;;;;;;5028227;28;20207;-46
2024/03/09 06:45:08;;;;;;;12.43;7.47;;;;;;;;;;5010674;28;20188;-46
2024/03/09 06:47:33;;;;;;;14.32;7.25;;;;;;;;;;5008066;28;20567;-47
2024/03/09 06:50:00;;;;;;;10.88;6.80;;;;;;;;;;5003192;28;20189;-46
2024/03/09 06:52:26;;;;;;;41.83;8.93;;;;;;;;;;5001337;28;20223;-49
2024/03/09 06:54:53;;;;;;;85.53;12.00;;;;;;;;;;5006957;28;20199;-49
2024/03/09 06:57:19;;;;;;;95.13;37.50;;;;;;;;;;5023696;28;20184;-49
2024/03/09 06:59:45;;;;;;;35.35;8.60;;;;;;;;;;5008043;28;20593;-49
2024/03/09 07:02:11;;;;;;;53.42;9.85;;;;;;;;;;5009036;28;20242;-49
2024/03/09 07:04:38;;;;;;;20.52;6.80;;;;;;;;;;5007616;28;20305;-49
2024/03/09 07:07:04;;;;;;;19.85;7.30;;;;;;;;;;5010617;28;20452;-49
2024/03/09 07:09:30;;;;;;;13.20;6.63;;;;;;;;;;5008226;28;20574;-49
2024/03/09 07:11:56;;;;;;;26.85;7.47;;;;;;;;;;5019436;28;20212;-48
2024/03/09 07:14:22;;;;;;;41.50;8.98;;;;;;;;;;5004117;28;20193;-49
2024/03/09 07:16:49;;;;;;;18.08;6.82;;;;;;;;;;5002693;28;20216;-49
2024/03/09 07:19:16;;;;;;;15.10;7.60;;;;;;;;;;5011044;28;20539;-49
2024/03/09 07:21:42;;;;;;;17.08;6.50;;;;;;;;;;4992630;28;20609;-49
2024/03/09 07:24:08;;;;;;;7.68;5.03;;;;;;;;;;4992718;28;20232;-48
2024/03/09 07:26:37;;;;;;;14.85;6.60;;;;;;;;;;4992052;28;20276;-49
2024/03/09 07:29:03;;;;;;;10.70;5.10;;;;;;;;;;4994856;28;20231;-49
2024/03/09 07:31:30;;;;;;;12.00;5.95;;;;;;;;;;4994025;28;20702;-49
2024/03/09 07:33:56;;;;;;;18.02;6.18;;;;;;;;;;4993613;28;20223;-48
2024/03/09 07:36:22;;;;;;;10.70;5.97;;;;;;;;;;5002492;28;20216;-49
2024/03/09 07:38:48;;;;;;;8.57;4.95;;;;;;;;;;5001362;28;20192;-49
2024/03/09 07:41:21;;;;;;;9.23;5.32;;;;;;;;;;4997026;28;20192;-49
2024/03/09 07:43:47;;;;;;;8.55;4.60;;;;;;;;;;4991049;28;20290;-49
2024/03/09 07:46:13;;;;;;;13.82;5.45;;;;;;;;;;4998115;28;20201;-49
2024/03/09 07:48:40;;;;;;;9.57;5.57;;;;;;;;;;4989054;28;20185;-49
2024/03/09 07:51:08;;;;;;;13.82;6.13;;;;;;;;;;4993227;28;20219;-49
2024/03/09 07:53:34;;;;;;;9.48;4.57;;;;;;;;;;4990965;28;20192;-49
2024/03/09 07:56:00;;;;;;;9.40;4.10;;;;;;;;;;4991713;28;20195;-49
2024/03/09 07:58:26;;;;;;;7.63;4.60;;;;;;;;;;4996833;28;20193;-49
2024/03/09 08:00:53;;;;;;;7.72;4.40;;;;;;;;;;4991933;28;20220;-48
2024/03/09 08:03:20;;;;;;;9.77;5.00;;;;;;;;;;4995994;28;20204;-48
2024/03/09 08:05:46;;;;;;;6.22;4.63;;;;;;;;;;5012028;28;20240;-48
2024/03/09 08:08:12;;;;;;;7.15;4.10;;;;;;;;;;4994005;28;20189;-48
2024/03/09 08:10:41;;;;;;;7.03;4.25;;;;;;;;;;4994208;28;20561;-48
2024/03/09 08:13:10;;;;;;;8.38;4.65;;;;;;;;;;5000158;28;20176;-49
2024/03/09 08:15:36;;;;;;;7.85;4.40;;;;;;;;;;5004499;28;20173;-48
2024/03/09 08:18:02;;;;;;;6.10;4.10;;;;;;;;;;5015465;28;20181;-48
2024/03/09 08:20:28;;;;;;;5.85;4.15;;;;;;;;;;5010617;28;20449;-48
2024/03/09 08:22:54;;;;;;;11.30;5.05;;;;;;;;;;5010619;28;20219;-48
2024/03/09 08:25:25;;;;;;;14.75;4.78;;;;;;;;;;5014541;28;20185;-49
2024/03/09 08:27:51;;;;;;;17.98;5.25;;;;;;;;;;5012825;28;20438;-48
2024/03/09 08:30:18;;;;;;;9.48;4.88;;;;;;;;;;5006389;28;20552;-48
2024/03/09 08:32:45;;;;;;;17.23;4.43;;;;;;;;;;5015968;28;20192;-48
2024/03/09 08:35:12;;;;;;;13.07;4.95;;;;;;;;;;5008866;28;20200;-48
2024/03/09 08:43:29;;;;;;;10.93;4.60;;;;;;;;;;5002788;28;20222;-48
2024/03/09 08:45:55;;;;;;;34.03;6.60;;;;;;;;;;5010790;28;20602;-48
2024/03/09 08:48:21;;;;;;;14.23;4.10;;;;;;;;;;5012783;28;20242;-48
2024/03/09 08:50:47;;;;;;;25.08;5.50;;;;;;;;;;5007761;28;21514;-48
2024/03/09 08:53:17;;;;;;;15.15;4.97;;;;;;;;;;5003975;28;20192;-48
2024/03/09 08:55:45;;;;;;;23.05;5.47;;;;;;;;;;5006476;28;20460;-48
2024/03/09 08:58:10;;;;;;;18.67;4.78;;;;;;;;;;5007809;28;20222;-48
2024/03/09 09:00:37;;;;;;;26.35;5.18;;;;;;;;;;5013487;28;20275;-48
2024/03/09 09:03:05;;;;;;;23.48;5.38;;;;;;;;;;5007606;28;20205;-48
2024/03/09 09:05:31;;;;;;;17.27;4.40;;;;;;;;;;5010112;28;20185;-48
2024/03/09 09:07:59;;;;;;;28.35;5.32;;;;;;;;;;5010082;28;20185;-48
2024/03/09 09:10:25;;;;;;;20.17;4.40;;;;;;;;;;5008932;28;20185;-48
2024/03/09 09:12:51;;;;;;;46.28;7.57;;;;;;;;;;5004720;28;20185;-48
2024/03/09 09:15:17;;;;;;;16.85;5.05;;;;;;;;;;5003849;28;20199;-48
2024/03/09 09:17:43;;;;;;;13.98;3.97;;;;;;;;;;5009803;28;20201;-48
2024/03/09 09:20:12;;;;;;;36.85;5.68;;;;;;;;;;5012443;28;20572;-48
2024/03/09 09:22:39;;;;;;;38.03;14.13;;;;;;;;;;5006836;28;20235;-48
2024/03/09 09:25:05;;;;;;;15.25;5.03;;;;;;;;;;5009496;28;20451;-48
2024/03/09 09:27:34;;;;;;;40.30;5.55;;;;;;;;;;5007053;28;20191;-48
2024/03/09 09:30:01;;;;;;;87.60;9.25;;;;;;;;;;5006761;28;20215;-48
2024/03/09 09:32:27;;;;;;;18.25;5.53;;;;;;;;;;5013918;28;20192;-48
2024/03/09 09:34:53;;;;;;;24.38;5.32;;;;;;;;;;5003364;28;20188;-48
2024/03/09 09:37:20;;;;;;;10.55;4.10;;;;;;;;;;5004083;28;20200;-48
2024/03/09 09:39:49;;;;;;;18.20;5.53;;;;;;;;;;5009012;28;20219;-48
2024/03/09 09:42:18;;;;;;;18.67;5.90;;;;;;;;;;5010794;28;20185;-48
2024/03/09 09:44:44;;;;;;;16.35;4.90;;;;;;;;;;4998761;28;20231;-48
2024/03/09 09:47:11;;;;;;;36.10;6.05;;;;;;;;;;5010378;28;20187;-48
2024/03/09 09:49:41;;;;;;;19.33;4.43;;;;;;;;;;5007677;28;20193;-48
2024/03/09 09:52:09;;;;;;;44.15;6.85;;;;;;;;;;5008830;28;20568;-49
2024/03/09 09:54:35;;;;;;;32.10;7.00;;;;;;;;;;5011004;28;20173;-48
2024/03/09 09:57:01;;;;;;;28.80;5.68;;;;;;;;;;5005188;28;20256;-49
2024/03/09 09:59:30;;;;;;;43.83;7.00;;;;;;;;;;5010977;28;20284;-48
2024/03/09 10:01:57;;;;;;;52.35;7.60;;;;;;;;;;5007354;28;20192;-48
2024/03/09 10:04:23;;;;;;;105.75;37.60;;;;;;;;;;5006860;28;20298;-48
2024/03/09 10:06:53;;;;;;;36.90;6.45;;;;;;;;;;5010729;28;20271;-48
2024/03/09 10:09:28;;;;;;;52.35;8.45;;;;;;;;;;5013341;28;20184;-48
2024/03/09 10:11:57;;;;;;;30.65;6.53;;;;;;;;;;5011900;28;20183;-48
2024/03/09 10:14:32;;;;;;;34.78;6.32;;;;;;;;;;5012734;28;20559;-49
2024/03/09 10:17:12;;;;;;;25.63;5.65;;;;;;;;;;4998050;28;20212;-48
2024/03/09 10:19:38;;;;;;;67.78;9.65;;;;;;;;;;5004017;28;20204;-49
2024/03/09 10:22:04;;;;;;;46.40;7.18;;;;;;;;;;5006815;28;20559;-48
2024/03/09 10:24:29;;;;;;;32.05;5.75;;;;;;;;;;5012138;28;20223;-49
2024/03/09 10:27:05;;;;;;;33.75;6.30;;;;;;;;;;5004729;28;20207;-48
2024/03/09 10:29:31;;;;;;;47.33;7.20;;;;;;;;;;5007488;28;20266;-48
2024/03/09 10:31:58;;;;;;;46.72;7.82;;;;;;;;;;5009523;28;20668;-49
2024/03/09 10:34:30;;;;;;;29.95;6.10;;;;;;;;;;5004462;28;20466;-48
2024/03/09 10:36:58;;;;;;;41.08;7.35;;;;;;;;;;5000690;28;20204;-49
2024/03/09 10:39:24;;;;;;;25.45;5.50;;;;;;;;;;5001512;28;20500;-48
2024/03/09 10:41:51;;;;;;;21.20;5.13;;;;;;;;;;5007142;28;20503;-49
2024/03/09 10:44:17;;;;;;;40.17;7.18;;;;;;;;;;5011642;28;20192;-48
2024/03/09 10:46:46;;;;;;;24.65;5.10;;;;;;;;;;5012892;28;20432;-48
2024/03/09 10:49:15;;;;;;;73.72;9.73;;;;;;;;;;5003638;28;20220;-49
2024/03/09 10:51:46;;;;;;;27.13;6.03;;;;;;;;;;5027209;28;20187;-48
2024/03/09 10:54:23;;;;;;;27.92;5.63;;;;;;;;;;5005784;28;20176;-49
2024/03/09 10:56:52;;;;;;;29.95;6.15;;;;;;;;;;5001849;28;20206;-48
2024/03/09 10:59:25;;;;;;;74.38;9.82;;;;;;;;;;5013188;28;20184;-49
2024/03/09 11:01:54;;;;;;;25.00;5.95;;;;;;;;;;5019339;28;20204;-48
2024/03/09 11:04:20;;;;;;;31.30;5.85;;;;;;;;;;5007659;28;20204;-48
2024/03/09 11:06:47;;;;;;;12.50;4.88;;;;;;;;;;5007162;28;20176;-48
2024/03/09 11:09:15;;;;;;;74.97;10.50;;;;;;;;;;5006604;28;20176;-49
2024/03/09 11:11:41;;;;;;;33.50;5.72;;;;;;;;;;5007669;28;20226;-49
2024/03/09 11:14:08;;;;;;;37.10;6.65;;;;;;;;;;5006385;28;20184;-49
2024/03/09 11:16:34;;;;;;;54.95;7.25;;;;;;;;;;5007815;28;20223;-49
2024/03/09 11:19:00;;;;;;;20.02;4.43;;;;;;;;;;5012931;28;20192;-49
2024/03/09 11:21:29;;;;;;;35.90;6.47;;;;;;;;;;5001804;28;20239;-50
2024/03/09 11:23:59;;;;;;;15.70;5.82;;;;;;;;;;5005654;28;20829;-49
2024/03/09 11:26:25;;;;;;;11.13;4.85;;;;;;;;;;5001660;28;20180;-49
2024/03/09 11:28:55;;;;;;;7.30;3.72;;;;;;;;;;5002603;28;20455;-48
2024/03/09 11:31:30;;;;;;;6.13;3.92;;;;;;;;;;5006900;28;20197;-48
2024/03/09 11:34:07;;;;;;;8.85;4.10;;;;;;;;;;5027469;28;20219;-48
2024/03/09 11:36:52;;;;;;;13.95;4.55;;;;;;;;;;5015000;28;20184;-48
2024/03/09 11:39:21;;;;;;;24.67;6.85;;;;;;;;;;5016240;28;20243;-48
2024/03/09 11:41:48;;;;;;;19.52;5.63;;;;;;;;;;5011571;28;20466;-48
2024/03/09 11:44:20;;;;;;;24.65;6.75;;;;;;;;;;5007477;28;20280;-49
2024/03/09 11:46:46;;;;;;;25.33;6.75;;;;;;;;;;5006074;28;20642;-48
2024/03/09 11:49:12;;;;;;;45.60;11.35;;;;;;;;;;5005591;28;20180;-48
2024/03/09 11:51:39;;;;;;;13.27;5.55;;;;;;;;;;5002617;28;20177;-49
2024/03/09 11:54:09;;;;;;;14.43;5.32;;;;;;;;;;5004774;28;20303;-48
2024/03/09 11:56:35;;;;;;;33.72;8.55;;;;;;;;;;5007048;28;20239;-49
2024/03/09 11:59:02;;;;;;;19.42;5.85;;;;;;;;;;5004513;28;20185;-49
2024/03/09 12:01:28;;;;;;;20.63;6.35;;;;;;;;;;5005393;28;20455;-48
2024/03/09 12:03:58;;;;;;;30.27;7.20;;;;;;;;;;5006711;28;20235;-49
2024/03/09 12:06:24;;;;;;;20.30;6.00;;;;;;;;;;5005005;28;20191;-49
2024/03/09 12:08:53;;;;;;;25.05;5.95;;;;;;;;;;5001766;28;20185;-48
2024/03/09 12:11:23;;;;;;;15.52;6.00;;;;;;;;;;5004070;28;20234;-50
2024/03/09 12:13:52;;;;;;;38.95;8.52;;;;;;;;;;5001854;28;20561;-48
2024/03/09 12:16:18;;;;;;;11.30;5.22;;;;;;;;;;5006266;28;20282;-49
2024/03/09 12:18:45;;;;;;;9.73;5.22;;;;;;;;;;5007968;28;20303;-48
2024/03/09 12:21:13;;;;;;;24.00;5.82;;;;;;;;;;5005411;28;20211;-49
2024/03/09 12:23:39;;;;;;;9.63;5.65;;;;;;;;;;4998352;28;20217;-49
2024/03/09 12:26:05;;;;;;;13.25;5.55;;;;;;;;;;5005637;28;20173;-48
2024/03/09 12:28:31;;;;;;;40.67;8.70;;;;;;;;;;5003806;28;20188;-48
2024/03/09 12:30:58;;;;;;;26.25;7.55;;;;;;;;;;4998847;28;20440;-49
2024/03/09 12:33:25;;;;;;;8.82;5.15;;;;;;;;;;5002651;28;20194;-49
2024/03/09 12:35:57;;;;;;;11.50;5.60;;;;;;;;;;5003988;28;20188;-49
2024/03/09 12:38:23;;;;;;;9.35;4.90;;;;;;;;;;5003409;28;20196;-48
2024/03/09 12:40:49;;;;;;;13.90;6.53;;;;;;;;;;5001672;28;20452;-49
2024/03/09 12:43:18;;;;;;;13.07;5.53;;;;;;;;;;5002768;28;20212;-48
2024/03/09 12:45:48;;;;;;;12.65;5.57;;;;;;;;;;5005658;28;20180;-48
2024/03/09 12:48:16;;;;;;;11.85;4.63;;;;;;;;;;5006601;28;20265;-48
2024/03/09 12:50:42;;;;;;;18.58;5.28;;;;;;;;;;5007741;28;20172;-48
2024/03/09 12:53:08;;;;;;;28.77;6.88;;;;;;;;;;5002829;28;20611;-49
2024/03/09 12:55:35;;;;;;;38.45;7.60;;;;;;;;;;5003932;28;20967;-48
2024/03/09 12:58:02;;;;;;;19.85;4.95;;;;;;;;;;5005273;28;20429;-49
2024/03/09 13:00:28;;;;;;;18.55;5.05;;;;;;;;;;5006684;28;20473;-46
2024/03/09 13:02:55;;;;;;;31.98;6.50;;;;;;;;;;5003517;28;20197;-50
2024/03/09 13:05:22;;;;;;;17.92;5.28;;;;;;;;;;5010375;28;20189;-50
2024/03/09 13:07:51;;;;;;;14.63;4.97;;;;;;;;;;5006506;28;20182;-48
2024/03/09 13:10:53;;;;;;;17.05;5.22;;;;;;;;;;5002511;28;20586;-49
2024/03/09 13:13:14;;;;;;;25.88;6.45;;;;;;;;;;5003573;28;20213;-47
2024/03/09 13:15:40;;;;;;;17.65;5.13;;;;;;;;;;5009032;28;20207;-47
2024/03/09 13:18:08;;;;;;;35.33;6.43;;;;;;;;;;5000187;28;20201;-47
2024/03/09 13:20:38;;;;;;;22.70;5.60;;;;;;;;;;5001315;28;20180;-47
2024/03/09 13:23:04;;;;;;;31.98;6.05;;;;;;;;;;5020540;28;20205;-47
2024/03/09 13:25:31;;;;;;;22.17;5.60;;;;;;;;;;5011432;28;20315;-47
2024/03/09 13:27:58;;;;;;;19.38;6.03;;;;;;;;;;5011033;28;20200;-47
2024/03/09 13:30:27;;;;;;;15.25;5.25;;;;;;;;;;4999958;28;20464;-47
2024/03/09 13:32:55;;;;;;;14.40;4.78;;;;;;;;;;5005900;28;20196;-47
2024/03/09 13:35:21;;;;;;;18.63;5.65;;;;;;;;;;5004488;28;20182;-46
2024/03/09 13:37:47;;;;;;;13.52;5.43;;;;;;;;;;5011255;28;20212;-47
2024/03/09 13:40:13;;;;;;;19.98;5.82;;;;;;;;;;5009143;28;20777;-47
2024/03/09 13:42:39;;;;;;;21.85;6.65;;;;;;;;;;5028171;28;20211;-47
2024/03/09 13:45:09;;;;;;;14.02;5.15;;;;;;;;;;5007796;28;20499;-47
2024/03/09 13:47:41;;;;;;;12.98;4.72;;;;;;;;;;5006507;28;20456;-47
2024/03/09 13:50:20;;;;;;;17.23;5.90;;;;;;;;;;5010652;28;20189;-47
2024/03/09 13:52:47;;;;;;;15.85;5.47;;;;;;;;;;5007367;28;20199;-47
2024/03/09 13:55:16;;;;;;;17.23;5.60;;;;;;;;;;5021068;28;20607;-47
2024/03/09 13:57:42;;;;;;;14.98;5.53;;;;;;;;;;5004089;28;20184;-47
2024/03/09 14:00:08;;;;;;;18.70;6.50;;;;;;;;;;5004247;28;20197;-47
2024/03/09 14:02:36;;;;;;;13.13;4.72;;;;;;;;;;5007627;28;20259;-47
2024/03/09 14:05:06;;;;;;;16.13;4.85;;;;;;;;;;5014921;28;20271;-47
2024/03/09 14:07:32;;;;;;;20.30;6.68;;;;;;;;;;5002317;28;20187;-47
2024/03/09 14:09:58;;;;;;;8.98;3.95;;;;;;;;;;5004490;28;20198;-48
2024/03/09 14:12:24;;;;;;;22.60;5.95;;;;;;;;;;5013316;28;20224;-47
2024/03/09 14:14:52;;;;;;;13.93;5.43;;;;;;;;;;5007968;28;20216;-47
2024/03/09 14:17:18;;;;;;;12.20;5.05;;;;;;;;;;5010597;28;20703;-47
2024/03/09 14:19:46;;;;;;;13.20;4.53;;;;;;;;;;5012916;28;20177;-47
2024/03/09 14:22:13;;;;;;;18.77;7.03;;;;;;;;;;5004211;28;20184;-46
2024/03/09 14:24:39;;;;;;;12.20;5.07;;;;;;;;;;5011688;28;20214;-47
2024/03/09 14:27:06;;;;;;;8.30;4.45;;;;;;;;;;5009517;28;20192;-47
2024/03/09 14:29:34;;;;;;;17.75;5.68;;;;;;;;;;5010895;28;20515;-47
2024/03/09 14:32:00;;;;;;;6.90;4.45;;;;;;;;;;5009539;28;20208;-47
2024/03/09 14:34:26;;;;;;;12.93;5.82;;;;;;;;;;5007709;28;20267;-47